sensor_id;sensor_type;location;lat;lon;timestamp;P1;durP1;ratioP1;P2;durP2;ratioP2
47882;SDS011;37739;50.350;7.578;2023-06-26T00:01:27;5.40;;;4.90;;
47882;SDS011;37739;50.350;7.578;2023-06-26T00:03:56;4.77;;;4.37;;
47882;SDS011;37739;50.350;7.578;2023-06-26T00:06:22;4.97;;;4.57;;
47882;SDS011;37739;50.350;7.578;2023-06-26T00:08:53;5.50;;;5.10;;
47882;SDS011;37739;50.350;7.578;2023-06-26T00:11:21;5.07;;;4.67;;
47882;SDS011;37739;50.350;7.578;2023-06-26T00:13:47;6.20;;;5.70;;
47882;SDS011;37739;50.350;7.578;2023-06-26T00:16:13;4.90;;;4.50;;
47882;SDS011;37739;50.350;7.578;2023-06-26T00:18:38;5.70;;;5.20;;
47882;SDS011;37739;50.350;7.578;2023-06-26T00:21:03;5.13;;;4.73;;
47882;SDS011;37739;50.350;7.578;2023-06-26T00:23:31;4.97;;;4.57;;
47882;SDS011;37739;50.350;7.578;2023-06-26T00:26:00;4.87;;;4.47;;
47882;SDS011;37739;50.350;7.578;2023-06-26T00:28:28;5.73;;;5.23;;
47882;SDS011;37739;50.350;7.578;2023-06-26T00:30:55;5.50;;;5.10;;
47882;SDS011;37739;50.350;7.578;2023-06-26T00:33:23;5.03;;;4.73;;
47882;SDS011;37739;50.350;7.578;2023-06-26T00:35:48;5.73;;;5.23;;
47882;SDS011;37739;50.350;7.578;2023-06-26T00:38:14;5.23;;;4.87;;
47882;SDS011;37739;50.350;7.578;2023-06-26T00:40:39;5.03;;;4.63;;
47882;SDS011;37739;50.350;7.578;2023-06-26T00:43:09;5.03;;;4.63;;
47882;SDS011;37739;50.350;7.578;2023-06-26T00:45:34;6.13;;;4.60;;
47882;SDS011;37739;50.350;7.578;2023-06-26T00:47:59;5.50;;;5.10;;
47882;SDS011;37739;50.350;7.578;2023-06-26T00:50:27;5.40;;;5.00;;
47882;SDS011;37739;50.350;7.578;2023-06-26T00:52:53;5.40;;;5.00;;
47882;SDS011;37739;50.350;7.578;2023-06-26T00:55:25;5.00;;;4.70;;
47882;SDS011;37739;50.350;7.578;2023-06-26T00:57:51;5.03;;;4.53;;
47882;SDS011;37739;50.350;7.578;2023-06-26T01:00:19;5.50;;;5.10;;
47882;SDS011;37739;50.350;7.578;2023-06-26T01:02:47;5.50;;;5.00;;
47882;SDS011;37739;50.350;7.578;2023-06-26T01:05:13;5.40;;;4.90;;
47882;SDS011;37739;50.350;7.578;2023-06-26T01:07:46;4.83;;;4.53;;
47882;SDS011;37739;50.350;7.578;2023-06-26T01:10:15;5.20;;;4.80;;
47882;SDS011;37739;50.350;7.578;2023-06-26T01:12:40;5.10;;;4.70;;
47882;SDS011;37739;50.350;7.578;2023-06-26T01:15:06;5.43;;;5.03;;
47882;SDS011;37739;50.350;7.578;2023-06-26T01:17:36;6.33;;;5.07;;
47882;SDS011;37739;50.350;7.578;2023-06-26T01:20:07;5.43;;;4.93;;
47882;SDS011;37739;50.350;7.578;2023-06-26T01:22:38;5.37;;;4.93;;
47882;SDS011;37739;50.350;7.578;2023-06-26T01:28:03;5.83;;;5.33;;
47882;SDS011;37739;50.350;7.578;2023-06-26T01:30:32;5.60;;;4.80;;
47882;SDS011;37739;50.350;7.578;2023-06-26T01:32:59;5.73;;;5.23;;
47882;SDS011;37739;50.350;7.578;2023-06-26T01:35:26;5.83;;;5.33;;
47882;SDS011;37739;50.350;7.578;2023-06-26T01:37:54;5.57;;;5.17;;
47882;SDS011;37739;50.350;7.578;2023-06-26T01:40:45;5.20;;;4.80;;
47882;SDS011;37739;50.350;7.578;2023-06-26T01:43:15;5.70;;;5.20;;
47882;SDS011;37739;50.350;7.578;2023-06-26T01:45:46;5.70;;;5.20;;
47882;SDS011;37739;50.350;7.578;2023-06-26T01:48:14;5.63;;;5.23;;
47882;SDS011;37739;50.350;7.578;2023-06-26T01:50:41;6.00;;;5.57;;
47882;SDS011;37739;50.350;7.578;2023-06-26T01:53:12;5.73;;;5.23;;
47882;SDS011;37739;50.350;7.578;2023-06-26T01:58:24;5.80;;;5.30;;
47882;SDS011;37739;50.350;7.578;2023-06-26T02:00:51;5.20;;;4.80;;
47882;SDS011;37739;50.350;7.578;2023-06-26T02:03:16;5.70;;;4.87;;
47882;SDS011;37739;50.350;7.578;2023-06-26T02:05:45;4.83;;;4.43;;
47882;SDS011;37739;50.350;7.578;2023-06-26T02:08:14;5.57;;;5.13;;
47882;SDS011;37739;50.350;7.578;2023-06-26T02:10:45;4.70;;;4.30;;
47882;SDS011;37739;50.350;7.578;2023-06-26T02:13:12;5.20;;;4.80;;
47882;SDS011;37739;50.350;7.578;2023-06-26T02:15:40;5.30;;;4.90;;
47882;SDS011;37739;50.350;7.578;2023-06-26T02:18:05;5.67;;;5.27;;
47882;SDS011;37739;50.350;7.578;2023-06-26T02:20:32;5.87;;;5.37;;
47882;SDS011;37739;50.350;7.578;2023-06-26T02:22:58;5.83;;;5.37;;
47882;SDS011;37739;50.350;7.578;2023-06-26T02:25:26;5.93;;;5.43;;
47882;SDS011;37739;50.350;7.578;2023-06-26T02:27:51;6.00;;;5.40;;
47882;SDS011;37739;50.350;7.578;2023-06-26T02:30:17;6.30;;;5.80;;
47882;SDS011;37739;50.350;7.578;2023-06-26T02:32:42;6.87;;;6.07;;
47882;SDS011;37739;50.350;7.578;2023-06-26T02:35:08;6.43;;;5.90;;
47882;SDS011;37739;50.350;7.578;2023-06-26T02:37:33;5.87;;;5.37;;
47882;SDS011;37739;50.350;7.578;2023-06-26T02:39:58;8.17;;;5.53;;
47882;SDS011;37739;50.350;7.578;2023-06-26T02:42:26;5.60;;;5.13;;
47882;SDS011;37739;50.350;7.578;2023-06-26T02:44:52;5.40;;;5.00;;
47882;SDS011;37739;50.350;7.578;2023-06-26T02:47:17;5.13;;;4.70;;
47882;SDS011;37739;50.350;7.578;2023-06-26T02:49:42;5.33;;;4.93;;
47882;SDS011;37739;50.350;7.578;2023-06-26T02:52:08;5.20;;;4.80;;
47882;SDS011;37739;50.350;7.578;2023-06-26T02:54:36;5.80;;;5.30;;
47882;SDS011;37739;50.350;7.578;2023-06-26T02:57:01;5.70;;;5.20;;
47882;SDS011;37739;50.350;7.578;2023-06-26T02:59:26;5.30;;;4.80;;
47882;SDS011;37739;50.350;7.578;2023-06-26T03:01:54;6.10;;;5.60;;
47882;SDS011;37739;50.350;7.578;2023-06-26T03:04:19;5.60;;;5.20;;
47882;SDS011;37739;50.350;7.578;2023-06-26T03:06:49;6.00;;;5.50;;
47882;SDS011;37739;50.350;7.578;2023-06-26T03:09:17;5.60;;;5.10;;
47882;SDS011;37739;50.350;7.578;2023-06-26T03:11:43;5.97;;;5.47;;
47882;SDS011;37739;50.350;7.578;2023-06-26T03:14:13;5.90;;;5.40;;
47882;SDS011;37739;50.350;7.578;2023-06-26T03:16:38;6.50;;;5.90;;
47882;SDS011;37739;50.350;7.578;2023-06-26T03:19:04;6.10;;;5.60;;
47882;SDS011;37739;50.350;7.578;2023-06-26T03:21:29;6.00;;;5.50;;
47882;SDS011;37739;50.350;7.578;2023-06-26T03:23:55;5.53;;;5.03;;
47882;SDS011;37739;50.350;7.578;2023-06-26T03:26:20;5.90;;;5.50;;
47882;SDS011;37739;50.350;7.578;2023-06-26T03:28:52;5.67;;;5.17;;
47882;SDS011;37739;50.350;7.578;2023-06-26T03:31:18;6.43;;;5.73;;
47882;SDS011;37739;50.350;7.578;2023-06-26T03:33:44;5.77;;;5.27;;
47882;SDS011;37739;50.350;7.578;2023-06-26T03:36:09;6.00;;;5.50;;
47882;SDS011;37739;50.350;7.578;2023-06-26T03:38:34;6.30;;;5.80;;
47882;SDS011;37739;50.350;7.578;2023-06-26T03:40:59;5.17;;;4.73;;
47882;SDS011;37739;50.350;7.578;2023-06-26T03:43:25;5.77;;;5.30;;
47882;SDS011;37739;50.350;7.578;2023-06-26T03:45:50;6.10;;;5.60;;
47882;SDS011;37739;50.350;7.578;2023-06-26T03:48:16;6.07;;;5.57;;
47882;SDS011;37739;50.350;7.578;2023-06-26T03:50:41;6.17;;;5.67;;
47882;SDS011;37739;50.350;7.578;2023-06-26T03:53:06;5.17;;;4.77;;
47882;SDS011;37739;50.350;7.578;2023-06-26T03:55:32;6.37;;;5.77;;
47882;SDS011;37739;50.350;7.578;2023-06-26T03:57:57;5.30;;;4.90;;
47882;SDS011;37739;50.350;7.578;2023-06-26T04:00:22;5.40;;;5.00;;
47882;SDS011;37739;50.350;7.578;2023-06-26T04:02:48;6.10;;;5.60;;
47882;SDS011;37739;50.350;7.578;2023-06-26T04:05:13;4.90;;;4.50;;
47882;SDS011;37739;50.350;7.578;2023-06-26T04:07:42;5.50;;;5.00;;
47882;SDS011;37739;50.350;7.578;2023-06-26T04:10:11;5.13;;;4.73;;
47882;SDS011;37739;50.350;7.578;2023-06-26T04:12:42;5.67;;;5.20;;
47882;SDS011;37739;50.350;7.578;2023-06-26T04:15:09;4.90;;;4.50;;
47882;SDS011;37739;50.350;7.578;2023-06-26T04:17:37;5.07;;;4.67;;
47882;SDS011;37739;50.350;7.578;2023-06-26T04:20:02;5.63;;;5.13;;
47882;SDS011;37739;50.350;7.578;2023-06-26T04:22:31;5.63;;;5.23;;
47882;SDS011;37739;50.350;7.578;2023-06-26T04:24:59;5.50;;;5.10;;
47882;SDS011;37739;50.350;7.578;2023-06-26T04:27:28;5.80;;;4.97;;
47882;SDS011;37739;50.350;7.578;2023-06-26T04:29:53;5.10;;;4.70;;
47882;SDS011;37739;50.350;7.578;2023-06-26T04:32:18;5.23;;;4.83;;
47882;SDS011;37739;50.350;7.578;2023-06-26T04:34:44;5.27;;;4.87;;
47882;SDS011;37739;50.350;7.578;2023-06-26T04:37:09;6.87;;;5.10;;
47882;SDS011;37739;50.350;7.578;2023-06-26T04:39:35;5.43;;;4.93;;
47882;SDS011;37739;50.350;7.578;2023-06-26T04:42:04;5.40;;;4.90;;
47882;SDS011;37739;50.350;7.578;2023-06-26T04:44:30;5.53;;;5.07;;
47882;SDS011;37739;50.350;7.578;2023-06-26T04:46:58;5.67;;;5.20;;
47882;SDS011;37739;50.350;7.578;2023-06-26T04:49:26;5.10;;;4.70;;
47882;SDS011;37739;50.350;7.578;2023-06-26T04:51:52;5.37;;;4.97;;
47882;SDS011;37739;50.350;7.578;2023-06-26T04:54:18;5.03;;;4.60;;
47882;SDS011;37739;50.350;7.578;2023-06-26T04:56:45;4.53;;;4.13;;
47882;SDS011;37739;50.350;7.578;2023-06-26T04:59:15;5.07;;;4.67;;
47882;SDS011;37739;50.350;7.578;2023-06-26T05:01:41;5.30;;;4.90;;
47882;SDS011;37739;50.350;7.578;2023-06-26T05:04:06;5.57;;;5.17;;
47882;SDS011;37739;50.350;7.578;2023-06-26T05:06:32;5.80;;;5.30;;
47882;SDS011;37739;50.350;7.578;2023-06-26T05:09:00;4.90;;;4.50;;
47882;SDS011;37739;50.350;7.578;2023-06-26T05:11:30;5.27;;;4.83;;
47882;SDS011;37739;50.350;7.578;2023-06-26T05:14:00;5.43;;;5.00;;
47882;SDS011;37739;50.350;7.578;2023-06-26T05:16:25;6.37;;;5.77;;
47882;SDS011;37739;50.350;7.578;2023-06-26T05:18:50;9.10;;;6.00;;
47882;SDS011;37739;50.350;7.578;2023-06-26T05:21:16;5.10;;;4.70;;
47882;SDS011;37739;50.350;7.578;2023-06-26T05:23:44;5.83;;;5.27;;
47882;SDS011;37739;50.350;7.578;2023-06-26T05:26:12;5.67;;;5.17;;
47882;SDS011;37739;50.350;7.578;2023-06-26T05:28:38;5.40;;;5.00;;
47882;SDS011;37739;50.350;7.578;2023-06-26T05:31:04;5.27;;;4.87;;
47882;SDS011;37739;50.350;7.578;2023-06-26T05:33:30;5.57;;;5.07;;
47882;SDS011;37739;50.350;7.578;2023-06-26T05:35:56;5.73;;;5.10;;
47882;SDS011;37739;50.350;7.578;2023-06-26T05:38:24;5.33;;;4.90;;
47882;SDS011;37739;50.350;7.578;2023-06-26T05:40:52;5.20;;;4.80;;
47882;SDS011;37739;50.350;7.578;2023-06-26T05:43:17;3.93;;;3.63;;
47882;SDS011;37739;50.350;7.578;2023-06-26T05:45:46;5.47;;;5.07;;
47882;SDS011;37739;50.350;7.578;2023-06-26T05:48:14;5.00;;;4.60;;
47882;SDS011;37739;50.350;7.578;2023-06-26T05:50:41;5.33;;;4.87;;
47882;SDS011;37739;50.350;7.578;2023-06-26T05:53:08;5.03;;;4.63;;
47882;SDS011;37739;50.350;7.578;2023-06-26T05:55:34;4.00;;;3.70;;
47882;SDS011;37739;50.350;7.578;2023-06-26T05:58:00;4.60;;;4.20;;
47882;SDS011;37739;50.350;7.578;2023-06-26T06:00:27;7.13;;;4.40;;
47882;SDS011;37739;50.350;7.578;2023-06-26T06:02:58;5.10;;;4.70;;
47882;SDS011;37739;50.350;7.578;2023-06-26T06:05:23;4.87;;;4.47;;
47882;SDS011;37739;50.350;7.578;2023-06-26T06:07:49;5.10;;;4.40;;
47882;SDS011;37739;50.350;7.578;2023-06-26T06:10:15;5.03;;;4.63;;
47882;SDS011;37739;50.350;7.578;2023-06-26T06:12:40;5.70;;;5.20;;
47882;SDS011;37739;50.350;7.578;2023-06-26T06:15:06;5.00;;;4.50;;
47882;SDS011;37739;50.350;7.578;2023-06-26T06:17:34;4.90;;;4.50;;
47882;SDS011;37739;50.350;7.578;2023-06-26T06:19:59;5.40;;;5.00;;
47882;SDS011;37739;50.350;7.578;2023-06-26T06:22:27;13.50;;;4.80;;
47882;SDS011;37739;50.350;7.578;2023-06-26T06:24:55;5.67;;;5.17;;
47882;SDS011;37739;50.350;7.578;2023-06-26T06:27:21;4.93;;;4.50;;
47882;SDS011;37739;50.350;7.578;2023-06-26T06:29:46;6.03;;;5.50;;
47882;SDS011;37739;50.350;7.578;2023-06-26T06:32:14;5.00;;;4.60;;
47882;SDS011;37739;50.350;7.578;2023-06-26T06:34:39;5.37;;;4.60;;
47882;SDS011;37739;50.350;7.578;2023-06-26T06:37:09;5.57;;;5.07;;
47882;SDS011;37739;50.350;7.578;2023-06-26T06:39:34;5.60;;;5.10;;
47882;SDS011;37739;50.350;7.578;2023-06-26T06:42:00;5.37;;;4.87;;
47882;SDS011;37739;50.350;7.578;2023-06-26T06:44:25;5.50;;;5.00;;
47882;SDS011;37739;50.350;7.578;2023-06-26T06:46:50;5.20;;;4.80;;
47882;SDS011;37739;50.350;7.578;2023-06-26T06:49:16;4.80;;;4.40;;
47882;SDS011;37739;50.350;7.578;2023-06-26T06:51:41;4.60;;;4.20;;
47882;SDS011;37739;50.350;7.578;2023-06-26T06:54:06;9.47;;;4.87;;
47882;SDS011;37739;50.350;7.578;2023-06-26T06:56:37;5.27;;;4.87;;
47882;SDS011;37739;50.350;7.578;2023-06-26T06:59:02;5.07;;;4.67;;
47882;SDS011;37739;50.350;7.578;2023-06-26T07:01:33;5.30;;;4.77;;
47882;SDS011;37739;50.350;7.578;2023-06-26T07:03:59;6.00;;;5.50;;
47882;SDS011;37739;50.350;7.578;2023-06-26T07:06:31;7.30;;;5.87;;
47882;SDS011;37739;50.350;7.578;2023-06-26T07:08:56;7.13;;;6.23;;
47882;SDS011;37739;50.350;7.578;2023-06-26T07:11:21;5.77;;;5.30;;
47882;SDS011;37739;50.350;7.578;2023-06-26T07:13:49;5.67;;;5.27;;
47882;SDS011;37739;50.350;7.578;2023-06-26T07:16:14;7.03;;;6.00;;
47882;SDS011;37739;50.350;7.578;2023-06-26T07:18:40;7.23;;;5.20;;
47882;SDS011;37739;50.350;7.578;2023-06-26T07:21:08;5.97;;;5.47;;
47882;SDS011;37739;50.350;7.578;2023-06-26T07:23:35;6.27;;;5.60;;
47882;SDS011;37739;50.350;7.578;2023-06-26T07:26:03;5.63;;;5.10;;
47882;SDS011;37739;50.350;7.578;2023-06-26T07:28:29;6.50;;;5.90;;
47882;SDS011;37739;50.350;7.578;2023-06-26T07:30:56;5.50;;;5.10;;
47882;SDS011;37739;50.350;7.578;2023-06-26T07:33:22;5.70;;;5.30;;
47882;SDS011;37739;50.350;7.578;2023-06-26T07:35:49;5.80;;;4.93;;
47882;SDS011;37739;50.350;7.578;2023-06-26T07:38:22;5.50;;;4.70;;
47882;SDS011;37739;50.350;7.578;2023-06-26T07:40:47;6.00;;;5.40;;
47882;SDS011;37739;50.350;7.578;2023-06-26T07:43:15;5.53;;;5.03;;
47882;SDS011;37739;50.350;7.578;2023-06-26T07:45:40;5.97;;;4.77;;
47882;SDS011;37739;50.350;7.578;2023-06-26T07:48:06;5.30;;;4.80;;
47882;SDS011;37739;50.350;7.578;2023-06-26T07:50:31;5.73;;;4.20;;
47882;SDS011;37739;50.350;7.578;2023-06-26T07:52:59;5.00;;;4.60;;
47882;SDS011;37739;50.350;7.578;2023-06-26T07:55:25;5.47;;;4.97;;
47882;SDS011;37739;50.350;7.578;2023-06-26T07:57:51;5.20;;;4.70;;
47882;SDS011;37739;50.350;7.578;2023-06-26T08:00:17;4.50;;;4.10;;
47882;SDS011;37739;50.350;7.578;2023-06-26T08:02:48;4.83;;;4.33;;
47882;SDS011;37739;50.350;7.578;2023-06-26T08:05:13;4.63;;;4.23;;
47882;SDS011;37739;50.350;7.578;2023-06-26T08:07:43;4.23;;;3.90;;
47882;SDS011;37739;50.350;7.578;2023-06-26T08:10:08;5.43;;;4.93;;
47882;SDS011;37739;50.350;7.578;2023-06-26T08:12:34;4.67;;;4.03;;
47882;SDS011;37739;50.350;7.578;2023-06-26T08:15:01;5.37;;;4.83;;
47882;SDS011;37739;50.350;7.578;2023-06-26T08:17:36;5.67;;;4.87;;
47882;SDS011;37739;50.350;7.578;2023-06-26T08:20:05;5.40;;;4.90;;
47882;SDS011;37739;50.350;7.578;2023-06-26T08:22:32;4.97;;;4.47;;
47882;SDS011;37739;50.350;7.578;2023-06-26T08:25:01;4.77;;;4.33;;
47882;SDS011;37739;50.350;7.578;2023-06-26T08:27:28;4.60;;;4.20;;
47882;SDS011;37739;50.350;7.578;2023-06-26T08:29:53;4.77;;;4.27;;
47882;SDS011;37739;50.350;7.578;2023-06-26T08:32:18;4.90;;;4.40;;
47882;SDS011;37739;50.350;7.578;2023-06-26T08:34:44;4.77;;;4.27;;
47882;SDS011;37739;50.350;7.578;2023-06-26T08:37:11;4.63;;;3.87;;
47882;SDS011;37739;50.350;7.578;2023-06-26T08:39:37;4.30;;;3.90;;
47882;SDS011;37739;50.350;7.578;2023-06-26T08:42:02;5.10;;;4.53;;
47882;SDS011;37739;50.350;7.578;2023-06-26T08:44:29;5.40;;;4.17;;
47882;SDS011;37739;50.350;7.578;2023-06-26T08:46:55;4.50;;;3.90;;
47882;SDS011;37739;50.350;7.578;2023-06-26T08:49:21;4.90;;;4.40;;
47882;SDS011;37739;50.350;7.578;2023-06-26T08:51:57;5.00;;;4.20;;
47882;SDS011;37739;50.350;7.578;2023-06-26T08:54:30;5.07;;;4.23;;
47882;SDS011;37739;50.350;7.578;2023-06-26T08:56:59;4.83;;;3.70;;
47882;SDS011;37739;50.350;7.578;2023-06-26T08:59:25;3.80;;;3.50;;
47882;SDS011;37739;50.350;7.578;2023-06-26T09:01:51;5.50;;;3.23;;
47882;SDS011;37739;50.350;7.578;2023-06-26T09:04:19;4.63;;;3.57;;
47882;SDS011;37739;50.350;7.578;2023-06-26T09:06:51;5.70;;;3.70;;
47882;SDS011;37739;50.350;7.578;2023-06-26T09:09:16;4.83;;;3.80;;
47882;SDS011;37739;50.350;7.578;2023-06-26T09:11:41;5.23;;;3.43;;
47882;SDS011;37739;50.350;7.578;2023-06-26T09:14:07;3.93;;;3.27;;
47882;SDS011;37739;50.350;7.578;2023-06-26T09:16:39;3.73;;;3.40;;
47882;SDS011;37739;50.350;7.578;2023-06-26T09:19:10;4.30;;;3.70;;
47882;SDS011;37739;50.350;7.578;2023-06-26T09:21:44;4.67;;;3.73;;
47882;SDS011;37739;50.350;7.578;2023-06-26T09:24:09;4.23;;;3.90;;
47882;SDS011;37739;50.350;7.578;2023-06-26T09:26:38;4.97;;;3.83;;
47882;SDS011;37739;50.350;7.578;2023-06-26T09:29:05;4.50;;;3.40;;
47882;SDS011;37739;50.350;7.578;2023-06-26T09:31:32;4.47;;;3.87;;
47882;SDS011;37739;50.350;7.578;2023-06-26T09:34:08;3.40;;;3.10;;
47882;SDS011;37739;50.350;7.578;2023-06-26T09:36:33;5.40;;;4.13;;
47882;SDS011;37739;50.350;7.578;2023-06-26T09:39:01;6.10;;;3.83;;
47882;SDS011;37739;50.350;7.578;2023-06-26T09:41:34;4.40;;;3.80;;
47882;SDS011;37739;50.350;7.578;2023-06-26T09:44:01;5.70;;;3.87;;
47882;SDS011;37739;50.350;7.578;2023-06-26T09:46:29;4.20;;;3.80;;
47882;SDS011;37739;50.350;7.578;2023-06-26T09:49:00;6.23;;;4.10;;
47882;SDS011;37739;50.350;7.578;2023-06-26T09:51:38;4.00;;;3.50;;
47882;SDS011;37739;50.350;7.578;2023-06-26T09:54:05;5.07;;;4.10;;
47882;SDS011;37739;50.350;7.578;2023-06-26T09:56:31;4.53;;;3.97;;
47882;SDS011;37739;50.350;7.578;2023-06-26T09:59:01;4.70;;;4.20;;
47882;SDS011;37739;50.350;7.578;2023-06-26T10:01:29;5.03;;;4.43;;
47882;SDS011;37739;50.350;7.578;2023-06-26T10:03:55;5.20;;;4.00;;
47882;SDS011;37739;50.350;7.578;2023-06-26T10:06:34;4.73;;;4.00;;
47882;SDS011;37739;50.350;7.578;2023-06-26T10:09:01;5.33;;;4.20;;
47882;SDS011;37739;50.350;7.578;2023-06-26T10:11:37;5.83;;;5.23;;
47882;SDS011;37739;50.350;7.578;2023-06-26T10:14:07;4.53;;;4.13;;
47882;SDS011;37739;50.350;7.578;2023-06-26T10:16:35;5.27;;;4.27;;
47882;SDS011;37739;50.350;7.578;2023-06-26T10:19:05;4.93;;;4.03;;
47882;SDS011;37739;50.350;7.578;2023-06-26T10:21:33;4.40;;;3.80;;
47882;SDS011;37739;50.350;7.578;2023-06-26T10:23:59;4.50;;;4.10;;
47882;SDS011;37739;50.350;7.578;2023-06-26T10:26:27;5.10;;;3.67;;
47882;SDS011;37739;50.350;7.578;2023-06-26T10:28:54;5.63;;;3.80;;
47882;SDS011;37739;50.350;7.578;2023-06-26T10:31:23;4.30;;;3.90;;
47882;SDS011;37739;50.350;7.578;2023-06-26T10:33:55;4.50;;;3.43;;
47882;SDS011;37739;50.350;7.578;2023-06-26T10:36:26;4.53;;;4.00;;
47882;SDS011;37739;50.350;7.578;2023-06-26T10:38:57;3.80;;;3.40;;
47882;SDS011;37739;50.350;7.578;2023-06-26T10:41:26;3.60;;;3.03;;
47882;SDS011;37739;50.350;7.578;2023-06-26T10:43:52;3.77;;;3.40;;
47882;SDS011;37739;50.350;7.578;2023-06-26T10:46:33;4.93;;;3.50;;
47882;SDS011;37739;50.350;7.578;2023-06-26T10:49:23;4.70;;;3.87;;
47882;SDS011;37739;50.350;7.578;2023-06-26T10:51:50;5.50;;;3.77;;
47882;SDS011;37739;50.350;7.578;2023-06-26T10:54:17;4.60;;;3.23;;
47882;SDS011;37739;50.350;7.578;2023-06-26T10:56:47;5.10;;;3.37;;
47882;SDS011;37739;50.350;7.578;2023-06-26T11:01:46;4.20;;;3.07;;
47882;SDS011;37739;50.350;7.578;2023-06-26T11:04:18;5.13;;;3.10;;
47882;SDS011;37739;50.350;7.578;2023-06-26T11:07:14;3.53;;;2.93;;
47882;SDS011;37739;50.350;7.578;2023-06-26T11:10:02;4.53;;;2.60;;
47882;SDS011;37739;50.350;7.578;2023-06-26T11:12:37;2.93;;;2.70;;
47882;SDS011;37739;50.350;7.578;2023-06-26T11:15:10;3.93;;;2.77;;
47882;SDS011;37739;50.350;7.578;2023-06-26T11:17:39;4.60;;;2.90;;
47882;SDS011;37739;50.350;7.578;2023-06-26T11:20:14;4.37;;;3.10;;
47882;SDS011;37739;50.350;7.578;2023-06-26T11:22:48;4.80;;;2.83;;
47882;SDS011;37739;50.350;7.578;2023-06-26T11:25:20;5.17;;;2.37;;
47882;SDS011;37739;50.350;7.578;2023-06-26T11:27:45;3.07;;;2.40;;
47882;SDS011;37739;50.350;7.578;2023-06-26T11:30:11;3.53;;;2.50;;
47882;SDS011;37739;50.350;7.578;2023-06-26T11:32:47;4.37;;;2.47;;
47882;SDS011;37739;50.350;7.578;2023-06-26T11:35:24;3.53;;;2.03;;
47882;SDS011;37739;50.350;7.578;2023-06-26T11:37:55;3.57;;;2.03;;
47882;SDS011;37739;50.350;7.578;2023-06-26T11:40:25;2.83;;;2.10;;
47882;SDS011;37739;50.350;7.578;2023-06-26T11:42:57;3.60;;;2.50;;
47882;SDS011;37739;50.350;7.578;2023-06-26T11:45:28;5.60;;;2.63;;
47882;SDS011;37739;50.350;7.578;2023-06-26T11:47:57;3.10;;;2.40;;
47882;SDS011;37739;50.350;7.578;2023-06-26T11:50:23;3.10;;;2.03;;
47882;SDS011;37739;50.350;7.578;2023-06-26T11:52:56;3.53;;;2.17;;
47882;SDS011;37739;50.350;7.578;2023-06-26T11:55:23;3.97;;;2.33;;
47882;SDS011;37739;50.350;7.578;2023-06-26T11:57:52;3.00;;;1.97;;
47882;SDS011;37739;50.350;7.578;2023-06-26T12:00:18;3.70;;;2.30;;
47882;SDS011;37739;50.350;7.578;2023-06-26T12:02:44;3.83;;;2.20;;
47882;SDS011;37739;50.350;7.578;2023-06-26T12:05:11;4.03;;;1.97;;
47882;SDS011;37739;50.350;7.578;2023-06-26T12:07:40;2.80;;;1.83;;
47882;SDS011;37739;50.350;7.578;2023-06-26T12:10:10;2.47;;;2.07;;
47882;SDS011;37739;50.350;7.578;2023-06-26T12:12:38;2.33;;;1.70;;
47882;SDS011;37739;50.350;7.578;2023-06-26T12:15:05;2.43;;;1.83;;
47882;SDS011;37739;50.350;7.578;2023-06-26T12:17:37;3.10;;;2.00;;
47882;SDS011;37739;50.350;7.578;2023-06-26T12:20:04;4.20;;;2.00;;
47882;SDS011;37739;50.350;7.578;2023-06-26T12:22:47;4.00;;;1.90;;
47882;SDS011;37739;50.350;7.578;2023-06-26T12:25:13;2.57;;;1.63;;
47882;SDS011;37739;50.350;7.578;2023-06-26T12:27:39;3.33;;;1.80;;
47882;SDS011;37739;50.350;7.578;2023-06-26T12:30:05;2.60;;;1.93;;
47882;SDS011;37739;50.350;7.578;2023-06-26T12:32:34;3.33;;;1.90;;
47882;SDS011;37739;50.350;7.578;2023-06-26T12:34:59;3.80;;;1.80;;
47882;SDS011;37739;50.350;7.578;2023-06-26T12:37:28;2.33;;;1.70;;
47882;SDS011;37739;50.350;7.578;2023-06-26T12:39:56;2.93;;;1.73;;
47882;SDS011;37739;50.350;7.578;2023-06-26T12:44:57;2.53;;;1.60;;
47882;SDS011;37739;50.350;7.578;2023-06-26T12:47:24;4.70;;;1.87;;
47882;SDS011;37739;50.350;7.578;2023-06-26T12:49:56;2.50;;;1.67;;
47882;SDS011;37739;50.350;7.578;2023-06-26T12:52:29;2.63;;;1.47;;
47882;SDS011;37739;50.350;7.578;2023-06-26T12:54:57;3.20;;;1.70;;
47882;SDS011;37739;50.350;7.578;2023-06-26T12:57:22;3.03;;;1.63;;
47882;SDS011;37739;50.350;7.578;2023-06-26T12:59:48;1.70;;;1.40;;
47882;SDS011;37739;50.350;7.578;2023-06-26T13:02:16;3.00;;;1.77;;
47882;SDS011;37739;50.350;7.578;2023-06-26T13:04:41;2.67;;;1.63;;
47882;SDS011;37739;50.350;7.578;2023-06-26T13:07:09;5.23;;;1.90;;
47882;SDS011;37739;50.350;7.578;2023-06-26T13:09:37;2.03;;;1.40;;
47882;SDS011;37739;50.350;7.578;2023-06-26T13:12:03;2.70;;;1.53;;
47882;SDS011;37739;50.350;7.578;2023-06-26T13:14:30;2.73;;;1.60;;
47882;SDS011;37739;50.350;7.578;2023-06-26T13:16:59;3.87;;;1.50;;
47882;SDS011;37739;50.350;7.578;2023-06-26T13:19:26;3.20;;;1.30;;
47882;SDS011;37739;50.350;7.578;2023-06-26T13:21:51;1.80;;;1.53;;
47882;SDS011;37739;50.350;7.578;2023-06-26T13:24:16;2.10;;;1.20;;
47882;SDS011;37739;50.350;7.578;2023-06-26T13:26:46;4.77;;;1.73;;
47882;SDS011;37739;50.350;7.578;2023-06-26T13:29:12;2.30;;;1.70;;
47882;SDS011;37739;50.350;7.578;2023-06-26T13:31:40;4.83;;;1.60;;
47882;SDS011;37739;50.350;7.578;2023-06-26T13:34:08;3.83;;;1.60;;
47882;SDS011;37739;50.350;7.578;2023-06-26T13:36:33;3.47;;;2.07;;
47882;SDS011;37739;50.350;7.578;2023-06-26T13:39:02;5.43;;;1.77;;
47882;SDS011;37739;50.350;7.578;2023-06-26T13:41:28;3.53;;;1.63;;
47882;SDS011;37739;50.350;7.578;2023-06-26T13:43:53;5.80;;;1.43;;
47882;SDS011;37739;50.350;7.578;2023-06-26T13:46:19;2.50;;;1.30;;
47882;SDS011;37739;50.350;7.578;2023-06-26T13:48:44;4.47;;;1.90;;
47882;SDS011;37739;50.350;7.578;2023-06-26T13:51:14;2.47;;;1.40;;
47882;SDS011;37739;50.350;7.578;2023-06-26T13:53:44;3.70;;;1.80;;
47882;SDS011;37739;50.350;7.578;2023-06-26T13:56:09;3.00;;;1.70;;
47882;SDS011;37739;50.350;7.578;2023-06-26T13:58:35;3.10;;;1.53;;
47882;SDS011;37739;50.350;7.578;2023-06-26T14:01:01;3.70;;;1.63;;
47882;SDS011;37739;50.350;7.578;2023-06-26T14:03:26;3.50;;;1.77;;
47882;SDS011;37739;50.350;7.578;2023-06-26T14:05:54;3.23;;;1.40;;
47882;SDS011;37739;50.350;7.578;2023-06-26T14:08:19;2.70;;;1.73;;
47882;SDS011;37739;50.350;7.578;2023-06-26T14:10:49;1.60;;;1.20;;
47882;SDS011;37739;50.350;7.578;2023-06-26T14:13:15;2.77;;;1.60;;
47882;SDS011;37739;50.350;7.578;2023-06-26T14:15:42;2.50;;;1.90;;
47882;SDS011;37739;50.350;7.578;2023-06-26T14:18:08;2.37;;;1.33;;
47882;SDS011;37739;50.350;7.578;2023-06-26T14:20:34;3.87;;;2.00;;
47882;SDS011;37739;50.350;7.578;2023-06-26T14:23:04;4.33;;;1.33;;
47882;SDS011;37739;50.350;7.578;2023-06-26T14:25:32;2.90;;;1.70;;
47882;SDS011;37739;50.350;7.578;2023-06-26T14:28:00;3.17;;;1.67;;
47882;SDS011;37739;50.350;7.578;2023-06-26T14:30:27;3.23;;;2.00;;
47882;SDS011;37739;50.350;7.578;2023-06-26T14:32:53;2.70;;;1.70;;
47882;SDS011;37739;50.350;7.578;2023-06-26T14:35:18;3.80;;;2.07;;
47882;SDS011;37739;50.350;7.578;2023-06-26T14:37:43;3.53;;;1.80;;
47882;SDS011;37739;50.350;7.578;2023-06-26T14:40:09;2.83;;;1.57;;
47882;SDS011;37739;50.350;7.578;2023-06-26T14:42:35;3.43;;;2.13;;
47882;SDS011;37739;50.350;7.578;2023-06-26T14:45:03;3.10;;;1.60;;
47882;SDS011;37739;50.350;7.578;2023-06-26T14:47:29;2.43;;;1.70;;
47882;SDS011;37739;50.350;7.578;2023-06-26T14:49:56;2.10;;;1.40;;
47882;SDS011;37739;50.350;7.578;2023-06-26T14:52:24;2.63;;;1.40;;
47882;SDS011;37739;50.350;7.578;2023-06-26T14:54:49;2.10;;;1.60;;
47882;SDS011;37739;50.350;7.578;2023-06-26T14:57:17;4.70;;;1.73;;
47882;SDS011;37739;50.350;7.578;2023-06-26T14:59:42;4.10;;;2.00;;
47882;SDS011;37739;50.350;7.578;2023-06-26T15:02:08;2.77;;;1.50;;